createdAt,value
2022-10-18T00:09:53.759Z,6.20
2022-10-18T00:19:55.235Z,9.53
2022-10-18T00:29:56.584Z,7.60
2022-10-18T00:39:58.047Z,7.50
2022-10-18T00:50:02.922Z,7.20
2022-10-18T01:00:09.660Z,7.60
2022-10-18T01:10:16.968Z,7.47
2022-10-18T01:21:06.469Z,8.53
2022-10-18T01:31:20.632Z,8.27
2022-10-18T01:41:25.043Z,8.73
2022-10-18T01:51:28.204Z,8.88
2022-10-18T02:01:42.178Z,7.83
2022-10-18T02:11:47.438Z,9.50
2022-10-18T02:21:51.062Z,10.77
2022-10-18T02:32:00.468Z,8.47
2022-10-18T02:42:06.732Z,10.67
2022-10-18T02:52:08.076Z,10.88
2022-10-18T03:02:09.478Z,10.23
2022-10-18T03:12:10.798Z,9.60
2022-10-18T03:22:12.168Z,12.38
2022-10-18T03:32:13.480Z,11.53
2022-10-18T03:42:14.844Z,12.37
2022-10-18T03:52:19.069Z,11.37
2022-10-18T04:02:20.491Z,13.05
2022-10-18T04:12:21.833Z,14.17
2022-10-18T04:22:23.243Z,12.87
2022-10-18T04:32:24.893Z,15.15
2022-10-18T04:42:26.272Z,16.10
2022-10-18T04:52:27.643Z,19.50
2022-10-18T05:02:29.188Z,20.95
2022-10-18T05:12:30.926Z,19.48
2022-10-18T05:22:32.739Z,17.13
2022-10-18T05:32:34.791Z,18.40
2022-10-18T05:42:36.409Z,18.23
2022-10-18T05:52:37.769Z,21.17
2022-10-18T06:02:39.239Z,17.80
2022-10-18T06:12:40.614Z,21.23
2022-10-18T06:22:41.939Z,19.33
2022-10-18T06:32:43.318Z,20.10
2022-10-18T06:42:55.185Z,22.17
2022-10-18T06:53:04.266Z,31.63
2022-10-18T07:03:05.680Z,29.23
2022-10-18T07:13:31.068Z,33.77
2022-10-18T07:23:28.462Z,31.83
2022-10-18T07:33:29.829Z,42.70
2022-10-18T07:43:31.253Z,33.23
2022-10-18T07:53:34.434Z,34.17
2022-10-18T08:03:37.095Z,38.07
2022-10-18T08:13:38.813Z,45.30
2022-10-18T08:23:40.895Z,40.20
2022-10-18T08:33:42.210Z,44.05
2022-10-18T08:44:07.981Z,45.87
2022-10-18T08:54:15.090Z,29.87
2022-10-18T09:04:51.787Z,40.47
2022-10-18T09:15:01.297Z,38.57
2022-10-18T09:25:18.336Z,40.77
2022-10-18T09:35:25.285Z,31.30
2022-10-18T09:45:39.714Z,31.87
2022-10-18T09:56:00.290Z,26.90
2022-10-18T10:06:27.079Z,26.33
2022-10-18T10:16:28.458Z,27.75
2022-10-18T10:26:34.913Z,27.80
2022-10-18T10:36:49.991Z,19.53
2022-10-18T10:46:52.295Z,15.55
2022-10-18T10:57:04.274Z,16.67
2022-10-18T11:07:27.338Z,22.43
2022-10-18T11:17:42.336Z,19.83
2022-10-18T11:27:57.146Z,18.93
2022-10-18T11:38:27.398Z,12.87
2022-10-18T11:48:40.998Z,26.52
2022-10-18T11:59:05.664Z,21.10
2022-10-18T12:09:25.322Z,16.80
2022-10-18T12:19:29.225Z,14.73
2022-10-18T12:29:50.411Z,14.50
2022-10-18T12:40:09.764Z,15.23
2022-10-18T12:50:32.525Z,22.90
2022-10-18T13:00:33.812Z,14.88
2022-10-18T13:10:36.971Z,14.93
2022-10-18T13:20:44.205Z,13.27
2022-10-18T13:31:01.833Z,10.75
2022-10-18T13:41:08.077Z,9.45
2022-10-18T13:51:31.063Z,8.37
2022-10-18T14:01:58.965Z,10.53
2022-10-18T14:12:14.515Z,10.40
2022-10-18T14:22:23.408Z,8.47
2022-10-18T14:32:31.803Z,7.60
2022-10-18T14:42:33.132Z,9.00
2022-10-18T14:52:35.811Z,8.97
2022-10-18T15:02:38.688Z,6.93
2022-10-18T15:12:57.799Z,10.10
2022-10-18T15:23:20.905Z,8.67
2022-10-18T15:33:23.924Z,7.50
2022-10-18T15:43:28.340Z,6.00
2022-10-18T15:53:47.993Z,7.72
2022-10-18T16:03:51.254Z,7.77
2022-10-18T16:13:56.433Z,7.60
2022-10-18T16:24:01.150Z,8.63
2022-10-18T16:34:02.609Z,8.30
2022-10-18T16:44:04.042Z,8.73
2022-10-18T16:54:05.397Z,8.77
2022-10-18T17:04:06.721Z,7.65
2022-10-18T17:14:08.137Z,8.20
2022-10-18T17:24:09.543Z,13.97
2022-10-18T17:34:10.888Z,8.68
2022-10-18T17:44:12.221Z,6.60
2022-10-18T17:54:13.604Z,7.80
2022-10-18T18:04:16.928Z,8.55
2022-10-18T18:14:18.288Z,10.43
2022-10-18T18:24:24.643Z,13.77
2022-10-18T18:34:26.089Z,8.82
2022-10-18T18:44:27.848Z,12.35
2022-10-18T18:54:30.299Z,7.93
2022-10-18T19:04:31.738Z,9.43
2022-10-18T19:14:33.127Z,6.47
2022-10-18T19:24:34.472Z,6.70
2022-10-18T19:34:35.871Z,6.77
2022-10-18T19:44:37.266Z,13.98
2022-10-18T19:54:38.891Z,8.03
2022-10-18T20:04:40.289Z,5.80
2022-10-18T20:14:41.632Z,6.78
2022-10-18T20:24:43.520Z,7.63
2022-10-18T20:34:44.845Z,6.83
2022-10-18T20:44:46.988Z,8.00
2022-10-18T20:54:48.309Z,8.40
2022-10-18T21:04:49.645Z,7.23
2022-10-18T21:14:51.010Z,8.30
2022-10-18T21:24:52.356Z,8.95
2022-10-18T21:34:53.754Z,8.20
2022-10-18T21:44:55.124Z,8.27
2022-10-18T21:54:56.493Z,7.18
2022-10-18T22:04:57.894Z,11.40
2022-10-18T22:15:00.244Z,9.63
2022-10-18T22:25:01.600Z,8.87
2022-10-18T22:35:03.104Z,9.13
2022-10-18T22:45:04.914Z,8.37
2022-10-18T22:55:06.893Z,6.90
2022-10-18T23:05:08.379Z,12.30
2022-10-18T23:15:10.260Z,9.67
2022-10-18T23:25:11.649Z,8.33
2022-10-18T23:35:13.007Z,9.00
2022-10-18T23:45:14.352Z,7.65
2022-10-18T23:55:15.698Z,10.00
